Time;durP1;ratioP1;P1;durP2;ratioP2;P2;SDS_P1;SDS_P2;PMS_P1;PMS_P2;Temp;Humidity;BMP_temperature;BMP_pressure;BME280_temperature;BME280_humidity;BME280_pressure;Samples;Min_cycle;Max_cycle;Signal;HPM_P1;HPM_P2
2023/01/26 00:01:18;;;;;;;67.40;37.90;;;;;;;-0.38;84.88;100982.45;103318;1257;109528;-80
2023/01/26 00:03:46;;;;;;;68.40;36.80;;;;;;;-0.34;85.06;100982.40;103216;1253;138452;-80
2023/01/26 00:06:14;;;;;;;66.60;36.30;;;;;;;-0.31;84.84;100978.52;103614;1257;96982;-81
2023/01/26 00:08:44;;;;;;;68.80;36.80;;;;;;;-0.28;84.85;100978.06;103523;1254;138268;-80
2023/01/26 00:11:14;;;;;;;66.80;37.30;;;;;;;-0.26;84.80;100974.70;103387;1257;96444;-80
2023/01/26 00:13:41;;;;;;;71.00;37.00;;;;;;;-0.23;84.71;100976.64;103244;1254;138540;-80
2023/01/26 00:16:11;;;;;;;68.40;37.80;;;;;;;-0.22;84.59;100974.97;103235;1257;108257;-80
2023/01/26 00:18:39;;;;;;;69.80;37.60;;;;;;;-0.19;84.64;100972.97;103348;1254;96451;-80
2023/01/26 00:21:08;;;;;;;66.80;37.10;;;;;;;-0.19;84.56;100969.23;102487;1253;1002831;-81
2023/01/26 00:23:35;;;;;;;68.40;37.30;;;;;;;-0.18;84.44;100965.15;103445;1257;96447;-80
2023/01/26 00:26:05;;;;;;;75.20;38.40;;;;;;;-0.18;84.42;100969.60;103194;1257;138392;-81
2023/01/26 00:28:33;;;;;;;71.00;37.20;;;;;;;-0.17;84.38;100966.72;103255;1257;107470;-81
2023/01/26 00:31:06;;;;;;;72.80;38.20;;;;;;;-0.15;84.58;100961.80;103286;1254;97492;-81
2023/01/26 00:33:35;;;;;;;74.20;38.50;;;;;;;-0.14;84.56;100956.71;103314;1254;138228;-81
2023/01/26 00:36:03;;;;;;;69.40;37.90;;;;;;;-0.12;84.49;100965.14;103468;1254;96557;-81
2023/01/26 00:38:30;;;;;;;62.50;35.50;;;;;;;-0.10;84.43;100962.10;103250;1256;138313;-80
2023/01/26 00:40:57;;;;;;;65.70;36.90;;;;;;;-0.10;84.37;100957.83;102536;1254;1003660;-80
2023/01/26 00:43:24;;;;;;;69.70;37.80;;;;;;;-0.10;84.39;100959.37;103223;1253;96597;-79
2023/01/26 00:45:51;;;;;;;65.60;37.80;;;;;;;-0.08;84.39;100958.71;103099;1253;138354;-80
2023/01/26 00:48:19;;;;;;;72.30;39.00;;;;;;;-0.09;84.37;100951.52;103292;1257;96338;-81
2023/01/26 00:50:50;;;;;;;73.40;39.70;;;;;;;-0.09;84.37;100953.73;103137;1257;138153;-80
2023/01/26 00:53:17;;;;;;;74.60;39.50;;;;;;;-0.09;84.25;100949.62;103215;1254;110358;-80
2023/01/26 00:55:44;;;;;;;67.90;38.10;;;;;;;-0.11;84.35;100949.95;102535;1254;1003539;-80
2023/01/26 00:58:12;;;;;;;69.00;38.30;;;;;;;-0.12;84.34;100946.16;103294;1256;107336;-80
2023/01/26 01:00:39;;;;;;;68.40;38.10;;;;;;;-0.14;84.41;100947.83;102615;1253;1003128;-80
2023/01/26 01:03:07;;;;;;;71.90;39.20;;;;;;;-0.15;84.38;100944.88;103159;1258;138711;-81
2023/01/26 01:05:35;;;;;;;70.80;39.30;;;;;;;-0.17;84.46;100954.09;103276;1254;108476;-81
2023/01/26 01:08:02;;;;;;;67.40;37.00;;;;;;;-0.18;84.50;100950.64;103256;1254;140163;-80
2023/01/26 01:10:29;;;;;;;71.70;40.00;;;;;;;-0.17;84.72;100950.15;102654;1253;1003056;-81
2023/01/26 01:12:57;;;;;;;69.30;37.80;;;;;;;-0.17;84.64;100949.29;103434;1257;97132;-80
2023/01/26 01:15:24;;;;;;;71.20;38.40;;;;;;;-0.18;84.56;100952.34;103293;1253;138163;-80
2023/01/26 01:17:51;;;;;;;69.00;37.90;;;;;;;-0.19;84.65;100951.27;103460;1258;107267;-80
2023/01/26 01:20:19;;;;;;;69.40;39.50;;;;;;;-0.20;84.70;100947.33;103242;1254;138551;-80
2023/01/26 01:22:46;;;;;;;69.00;38.40;;;;;;;-0.20;84.70;100942.53;103294;1256;108141;-80
2023/01/26 01:25:13;;;;;;;74.30;40.00;;;;;;;-0.20;84.85;100934.50;103382;1254;96476;-80
2023/01/26 01:27:41;;;;;;;69.20;39.40;;;;;;;-0.21;84.77;100928.67;103368;1257;138329;-80
2023/01/26 01:30:10;;;;;;;69.40;38.00;;;;;;;-0.23;84.79;100923.66;103269;1258;107829;-80
2023/01/26 01:32:39;;;;;;;73.80;40.60;;;;;;;-0.26;84.86;100921.20;103386;1253;138305;-80
2023/01/26 01:35:07;;;;;;;74.40;39.50;;;;;;;-0.29;84.91;100913.98;103199;1256;108141;-80
2023/01/26 01:37:35;;;;;;;80.30;42.40;;;;;;;-0.31;84.89;100908.31;103430;1253;96445;-79
2023/01/26 01:40:02;;;;;;;70.30;40.40;;;;;;;-0.31;85.16;100906.59;102615;1253;1003280;-81
2023/01/26 01:42:30;;;;;;;76.10;39.90;;;;;;;-0.32;85.09;100906.06;103300;1253;106856;-80
2023/01/26 01:45:37;;;;;;;73.00;40.50;;;;;;;-0.34;85.10;100897.65;103255;1257;138498;-80
2023/01/26 01:48:09;;;;;;;77.30;42.70;;;;;;;-0.33;85.34;100895.61;103279;1253;107610;-80
2023/01/26 01:50:39;;;;;;;75.50;40.60;;;;;;;-0.34;85.50;100890.30;102806;1253;1003134;-82
2023/01/26 01:53:08;;;;;;;73.90;40.30;;;;;;;-0.34;85.33;100887.22;103215;1254;109133;-80
2023/01/26 01:55:36;;;;;;;71.50;40.70;;;;;;;-0.35;85.29;100885.98;103289;1253;107701;-81
2023/01/26 01:58:06;;;;;;;77.40;41.10;;;;;;;-0.39;85.40;100880.60;103276;1257;96449;-81
2023/01/26 02:00:34;;;;;;;78.60;42.80;;;;;;;-0.41;85.44;100875.77;103496;1253;108086;-81
2023/01/26 02:03:18;;;;;;;75.30;41.20;;;;;;;-0.43;85.61;100869.06;103277;1254;138438;-80
2023/01/26 02:05:52;;;;;;;77.10;42.00;;;;;;;-0.45;85.62;100870.91;103424;1254;109589;-79
2023/01/26 02:08:22;;;;;;;74.60;41.70;;;;;;;-0.46;85.62;100872.75;103537;1252;140423;-80
2023/01/26 02:10:54;;;;;;;75.90;42.80;;;;;;;-0.48;85.80;100873.58;103379;1253;96429;-80
2023/01/26 02:13:24;;;;;;;77.20;42.00;;;;;;;-0.48;85.90;100869.80;103298;1253;108845;-79
2023/01/26 02:15:53;;;;;;;75.90;41.80;;;;;;;-0.47;86.11;100871.36;102428;1254;1005558;-79
2023/01/26 02:18:20;;;;;;;74.70;42.40;;;;;;;-0.47;85.93;100867.77;103533;1254;108743;-79
2023/01/26 02:20:50;;;;;;;76.70;42.20;;;;;;;-0.47;86.12;100869.50;103198;1253;140038;-79
2023/01/26 02:23:26;;;;;;;77.80;44.00;;;;;;;-0.46;86.24;100867.14;103359;1257;96612;-79
2023/01/26 02:26:05;;;;;;;77.80;41.80;;;;;;;-0.44;86.28;100858.62;102389;1253;1002735;-80
2023/01/26 02:28:32;;;;;;;79.10;42.40;;;;;;;-0.42;86.20;100861.39;102641;1252;1002893;-80
2023/01/26 02:31:03;;;;;;;75.80;42.10;;;;;;;-0.43;86.24;100858.13;102568;1254;1002970;-81
2023/01/26 02:33:33;;;;;;;77.90;41.20;;;;;;;-0.45;86.38;100852.45;103231;1253;139805;-81
2023/01/26 02:36:02;;;;;;;74.70;42.60;;;;;;;-0.43;86.42;100851.64;103161;1253;97337;-80
2023/01/26 02:38:36;;;;;;;79.60;41.60;;;;;;;-0.41;86.37;100847.59;103253;1254;138337;-80
2023/01/26 02:41:08;;;;;;;76.40;40.60;;;;;;;-0.39;86.49;100844.55;103365;1253;97177;-80
2023/01/26 02:43:35;;;;;;;73.00;40.90;;;;;;;-0.39;86.40;100846.59;103287;1254;110675;-81
2023/01/26 02:46:03;;;;;;;78.50;42.00;;;;;;;-0.38;86.36;100849.52;103323;1253;109266;-82
2023/01/26 02:51:17;;;;;;;76.40;40.80;;;;;;;-0.38;86.34;100844.40;102730;1257;138951;-81
2023/01/26 02:53:45;;;;;;;73.40;42.10;;;;;;;-0.38;86.31;100839.27;103096;1258;96443;-80
2023/01/26 02:56:12;;;;;;;75.20;40.50;;;;;;;-0.36;86.41;100838.45;103345;1257;138693;-79
2023/01/26 02:58:40;;;;;;;75.40;41.40;;;;;;;-0.34;86.49;100831.02;102941;1257;107782;-80
2023/01/26 03:01:07;;;;;;;74.00;39.60;;;;;;;-0.31;86.46;100825.42;102991;1257;96502;-80
2023/01/26 03:03:41;;;;;;;71.10;41.60;;;;;;;-0.30;86.42;100822.55;102089;1259;1003429;-80
2023/01/26 03:06:10;;;;;;;78.80;40.80;;;;;;;-0.29;86.53;100812.66;103161;1261;96482;-80
2023/01/26 03:08:38;;;;;;;76.80;42.00;;;;;;;-0.28;86.42;100807.87;103678;1258;138568;-80
2023/01/26 03:11:08;;;;;;;75.10;40.10;;;;;;;-0.29;86.25;100805.30;102754;1259;107033;-80
2023/01/26 03:13:36;;;;;;;75.20;40.00;;;;;;;-0.28;86.45;100803.60;103079;1257;97018;-80
2023/01/26 03:16:06;;;;;;;73.10;40.10;;;;;;;-0.27;86.46;100805.17;102805;1257;108215;-80
2023/01/26 03:29:42;;;;;;;73.60;40.40;;;;;;;-0.23;86.54;100785.76;102750;1258;1002218;-81
2023/01/26 03:32:09;;;;;;;80.70;42.40;;;;;;;-0.23;86.39;100783.54;102997;1260;138928;-81
2023/01/26 03:34:40;;;;;;;78.40;41.20;;;;;;;-0.22;86.53;100781.33;103298;1256;110155;-79
2023/01/26 03:37:07;;;;;;;75.90;41.50;;;;;;;-0.23;86.64;100780.28;103113;1256;107002;-81
2023/01/26 03:56:31;;;;;;;80.70;42.90;;;;;;;-0.23;86.64;100763.38;103249;1258;138687;-81
2023/01/26 03:59:07;;;;;;;81.30;42.90;;;;;;;-0.20;86.93;100762.58;103088;1254;96557;-81
2023/01/26 04:01:38;;;;;;;82.40;42.00;;;;;;;-0.17;86.84;100760.96;103281;1254;109829;-81
2023/01/26 04:09:42;;;;;;;78.80;41.40;;;;;;;-0.11;86.66;100754.58;103008;1254;139056;-80
2023/01/26 04:12:11;;;;;;;76.50;40.30;;;;;;;-0.10;86.53;100753.21;103191;1254;96589;-80
2023/01/26 04:23:05;;;;;;;74.10;38.00;;;;;;;-0.08;86.36;100749.16;103240;1258;108533;-80
2023/01/26 04:25:33;;;;;;;77.20;39.20;;;;;;;-0.07;86.41;100752.24;103352;1257;96406;-81
2023/01/26 04:28:00;;;;;;;66.00;37.40;;;;;;;-0.06;86.37;100754.82;102387;1254;1003059;-80
2023/01/26 04:30:28;;;;;;;69.40;36.30;;;;;;;-0.06;86.32;100755.85;103138;1256;108755;-80
2023/01/26 04:32:58;;;;;;;69.50;36.20;;;;;;;-0.05;86.33;100754.85;102251;1256;1004068;-80
2023/01/26 04:35:25;;;;;;;70.10;37.00;;;;;;;-0.03;86.37;100756.58;103242;1254;108245;-80
2023/01/26 04:37:53;;;;;;;67.60;37.60;;;;;;;-0.02;86.29;100754.38;103285;1257;138847;-80
2023/01/26 04:40:21;;;;;;;73.00;38.30;;;;;;;-0.01;86.40;100756.11;103231;1257;110228;-81
2023/01/26 04:42:48;;;;;;;67.10;37.40;;;;;;;0.01;86.25;100750.16;103375;1254;107683;-80
2023/01/26 04:45:16;;;;;;;75.60;39.00;;;;;;;0.00;86.23;100747.93;103332;1254;139366;-80
2023/01/26 04:47:44;;;;;;;78.50;39.10;;;;;;;0.00;86.16;100752.71;103199;1256;107264;-79
2023/01/26 04:50:13;;;;;;;74.60;38.40;;;;;;;-0.01;86.22;100750.30;103504;1254;138553;-79
2023/01/26 04:52:40;;;;;;;73.70;38.50;;;;;;;-0.02;86.25;100755.06;103423;1258;109763;-80
2023/01/26 04:55:09;;;;;;;71.70;39.00;;;;;;;-0.03;86.20;100750.60;103180;1255;108436;-80
2023/01/26 04:57:38;;;;;;;74.30;38.40;;;;;;;-0.04;86.23;100749.05;103202;1254;138774;-82
2023/01/26 05:00:09;;;;;;;75.50;38.60;;;;;;;-0.05;86.22;100745.10;102490;1254;1003490;-83
2023/01/26 05:02:37;;;;;;;71.00;38.20;;;;;;;-0.05;86.20;100747.31;102595;1258;1002570;-80
2023/01/26 05:05:07;;;;;;;74.90;37.60;;;;;;;-0.07;86.26;100743.86;103218;1258;109868;-80
2023/01/26 05:07:34;;;;;;;73.60;37.60;;;;;;;-0.08;86.25;100738.38;103344;1254;107634;-79
2023/01/26 05:10:02;;;;;;;71.00;37.80;;;;;;;-0.09;86.17;100737.67;103656;1257;139420;-81
2023/01/26 05:12:42;;;;;;;75.00;38.50;;;;;;;-0.10;86.26;100735.43;103257;1254;108667;-79
2023/01/26 05:15:28;;;;;;;72.20;37.40;;;;;;;-0.11;86.41;100735.94;103157;1254;139569;-79
2023/01/26 05:18:00;;;;;;;77.80;39.20;;;;;;;-0.11;86.40;100739.86;103122;1257;109718;-79
2023/01/26 05:20:45;;;;;;;75.40;39.00;;;;;;;-0.11;86.41;100738.48;103069;1254;138351;-79
2023/01/26 05:23:18;;;;;;;77.10;39.90;;;;;;;-0.11;86.49;100733.55;103267;1254;96981;-80
2023/01/26 05:26:05;;;;;;;78.80;39.80;;;;;;;-0.11;86.57;100731.83;103175;1254;139166;-82
2023/01/26 05:28:43;;;;;;;78.70;40.00;;;;;;;-0.12;86.60;100735.06;103199;1254;96582;-80
2023/01/26 05:31:10;;;;;;;75.20;38.90;;;;;;;-0.13;86.70;100734.02;103248;1256;108274;-82
2023/01/26 05:33:37;;;;;;;67.10;37.50;;;;;;;-0.14;86.71;100729.89;102401;1254;1002974;-81
2023/01/26 05:36:08;;;;;;;74.10;39.60;;;;;;;-0.17;86.63;100725.92;102800;1254;1003565;-80
2023/01/26 05:38:35;;;;;;;74.90;38.50;;;;;;;-0.18;86.72;100723.67;102517;1257;1002955;-80
2023/01/26 05:41:03;;;;;;;73.40;38.00;;;;;;;-0.19;86.92;100728.23;103278;1253;96658;-80
2023/01/26 05:43:38;;;;;;;72.30;38.00;;;;;;;-0.21;86.92;100736.06;103285;1254;110184;-81
2023/01/26 05:46:33;;;;;;;68.50;36.40;;;;;;;-0.22;86.95;100737.60;103241;1256;107748;-80
2023/01/26 05:49:02;;;;;;;72.10;37.50;;;;;;;-0.23;87.03;100733.30;102866;1254;1003075;-79
2023/01/26 05:51:29;;;;;;;68.90;36.20;;;;;;;-0.22;87.12;100730.23;103132;1257;138555;-79
2023/01/26 05:53:57;;;;;;;72.90;38.90;;;;;;;-0.23;87.17;100729.89;103273;1254;96540;-80
2023/01/26 05:56:25;;;;;;;74.50;38.80;;;;;;;-0.22;87.18;100734.34;103321;1254;140081;-82
2023/01/26 05:58:58;;;;;;;69.30;36.70;;;;;;;-0.21;87.18;100738.45;103193;1258;107009;-81
2023/01/26 06:01:26;;;;;;;70.50;37.20;;;;;;;-0.21;87.23;100737.95;103239;1253;96466;-81
2023/01/26 06:03:57;;;;;;;70.80;37.10;;;;;;;-0.19;87.15;100744.83;103213;1253;138017;-81
2023/01/26 06:06:28;;;;;;;70.40;36.50;;;;;;;-0.17;87.39;100745.73;103196;1253;96536;-80
2023/01/26 06:09:02;;;;;;;70.40;37.70;;;;;;;-0.17;87.19;100743.86;103302;1253;138180;-81
2023/01/26 06:11:31;;;;;;;71.60;36.20;;;;;;;-0.16;87.28;100741.66;103320;1253;108305;-80
2023/01/26 06:14:08;;;;;;;68.00;36.50;;;;;;;-0.14;87.29;100739.11;103130;1253;139931;-80
2023/01/26 06:16:35;;;;;;;65.00;35.10;;;;;;;-0.14;87.21;100738.29;103873;1256;108192;-80
2023/01/26 06:19:04;;;;;;;70.50;36.90;;;;;;;-0.12;87.13;100738.48;102645;1253;1003429;-84
2023/01/26 06:21:32;;;;;;;70.00;37.80;;;;;;;-0.10;87.17;100736.29;103443;1257;137668;-81
2023/01/26 06:24:00;;;;;;;78.20;39.90;;;;;;;-0.08;87.12;100738.36;102646;1253;1003153;-82
2023/01/26 06:26:28;;;;;;;77.30;38.80;;;;;;;-0.07;87.16;100733.63;103285;1253;139097;-83
2023/01/26 06:28:56;;;;;;;79.60;39.10;;;;;;;-0.05;87.16;100732.44;103363;1253;107266;-83
2023/01/26 06:31:28;;;;;;;74.50;38.90;;;;;;;-0.04;87.10;100732.46;103396;1253;96981;-83
2023/01/26 06:33:57;;;;;;;75.20;39.00;;;;;;;-0.05;86.97;100736.21;102507;1258;1002357;-84
2023/01/26 06:36:27;;;;;;;86.60;42.90;;;;;;;-0.06;86.89;100734.14;102568;1257;1003674;-84
2023/01/26 06:38:54;;;;;;;88.60;43.80;;;;;;;-0.09;86.83;100735.79;103873;1258;138895;-82
2023/01/26 06:41:23;;;;;;;89.40;44.30;;;;;;;-0.13;86.92;100731.28;103344;1256;111110;-85
2023/01/26 06:43:50;;;;;;;95.20;45.40;;;;;;;-0.15;87.15;100735.52;103177;1253;138503;-81
2023/01/26 06:46:19;;;;;;;92.00;44.70;;;;;;;-0.17;87.22;100737.52;103374;1257;111857;-83
2023/01/26 06:48:48;;;;;;;96.10;46.90;;;;;;;-0.20;87.38;100730.61;103303;1258;106572;-84
2023/01/26 06:51:45;;;;;;;90.50;45.10;;;;;;;-0.23;87.62;100730.22;102531;1253;1003468;-84
2023/01/26 06:54:14;;;;;;;93.00;46.70;;;;;;;-0.27;87.57;100725.37;103730;1253;106600;-82
2023/01/26 06:57:04;;;;;;;89.00;45.50;;;;;;;-0.29;87.91;100721.06;103943;1253;138489;-82
2023/01/26 06:59:54;;;;;;;90.40;45.40;;;;;;;-0.31;87.85;100717.95;103313;1253;109282;-86
2023/01/26 07:02:43;;;;;;;93.20;45.20;;;;;;;-0.34;88.03;100717.56;103209;1253;138431;-84
2023/01/26 07:05:11;;;;;;;89.40;43.70;;;;;;;-0.35;88.10;100723.19;103416;1253;96622;-84
2023/01/26 07:07:38;;;;;;;83.00;42.90;;;;;;;-0.36;87.83;100725.88;102897;1256;1002799;-83
2023/01/26 07:10:08;;;;;;;85.10;43.20;;;;;;;-0.36;87.91;100724.67;103399;1256;96453;-84
2023/01/26 07:12:44;;;;;;;84.00;40.40;;;;;;;-0.36;87.93;100730.84;103312;1253;109325;-83
2023/01/26 07:15:13;;;;;;;81.80;38.90;;;;;;;-0.36;87.86;100730.30;103571;1253;138512;-82
2023/01/26 07:17:40;;;;;;;76.80;40.40;;;;;;;-0.37;87.87;100726.35;103431;1253;96461;-83
2023/01/26 07:20:10;;;;;;;76.20;38.20;;;;;;;-0.38;87.86;100721.89;103185;1253;138317;-76
2023/01/26 07:22:37;;;;;;;80.00;39.90;;;;;;;-0.40;87.83;100720.15;104563;1252;94273;-83
2023/01/26 07:25:05;;;;;;;77.30;38.50;;;;;;;-0.40;87.79;100721.85;103260;1253;109849;-83
2023/01/26 07:27:33;;;;;;;73.80;38.20;;;;;;;-0.40;87.78;100716.91;103155;1257;138345;-85
2023/01/26 07:30:00;;;;;;;72.80;37.00;;;;;;;-0.39;87.93;100717.61;103441;1253;96534;-83
2023/01/26 07:32:27;;;;;;;78.40;37.70;;;;;;;-0.37;87.88;100712.16;103322;1256;138130;-83
2023/01/26 07:34:54;;;;;;;73.20;37.00;;;;;;;-0.35;87.84;100711.03;103339;1257;96430;-81
2023/01/26 07:37:21;;;;;;;70.10;36.00;;;;;;;-0.34;87.80;100709.35;102490;1257;1002785;-79
2023/01/26 07:39:50;;;;;;;74.90;36.10;;;;;;;-0.32;87.89;100709.73;103146;1253;139508;-82
2023/01/26 07:42:17;;;;;;;68.50;36.90;;;;;;;-0.32;87.59;100700.85;103377;1253;96470;-83
2023/01/26 07:44:47;;;;;;;69.40;35.40;;;;;;;-0.32;87.71;100699.14;103339;1253;138661;-83
2023/01/26 07:47:14;;;;;;;70.30;36.50;;;;;;;-0.33;87.66;100705.44;103458;1253;96460;-77
2023/01/26 07:49:41;;;;;;;68.60;34.90;;;;;;;-0.35;87.52;100703.35;103401;1253;110136;-82
2023/01/26 07:52:09;;;;;;;66.90;34.80;;;;;;;-0.34;87.76;100701.83;103401;1253;107415;-83
2023/01/26 07:54:37;;;;;;;67.40;34.80;;;;;;;-0.32;87.80;100704.79;103334;1256;96454;-73
2023/01/26 07:57:05;;;;;;;66.40;33.40;;;;;;;-0.29;87.78;100699.19;103301;1257;139804;-79
2023/01/26 07:59:32;;;;;;;63.40;33.30;;;;;;;-0.28;87.53;100706.90;104579;1253;94617;-77
2023/01/26 08:01:59;;;;;;;63.20;32.40;;;;;;;-0.29;87.31;100709.27;104536;1252;139035;-77
2023/01/26 08:04:27;;;;;;;62.50;31.80;;;;;;;-0.27;87.35;100709.98;102723;1257;1002878;-77
2023/01/26 08:06:54;;;;;;;56.20;30.50;;;;;;;-0.25;87.31;100705.74;103126;1257;98255;-77
2023/01/26 08:09:21;;;;;;;58.70;30.50;;;;;;;-0.25;86.95;100708.83;103240;1253;138347;-78
2023/01/26 08:11:48;;;;;;;55.10;29.90;;;;;;;-0.26;86.81;100709.31;103334;1253;96456;-75
2023/01/26 08:14:16;;;;;;;57.20;30.40;;;;;;;-0.26;86.78;100705.21;103225;1253;138542;-76
2023/01/26 08:16:44;;;;;;;52.50;28.60;;;;;;;-0.27;86.83;100704.52;103223;1253;108092;-75
2023/01/26 08:19:12;;;;;;;53.20;28.80;;;;;;;-0.26;86.73;100709.66;103240;1253;96550;-78
2023/01/26 08:21:39;;;;;;;54.50;28.10;;;;;;;-0.26;86.56;100704.36;103165;1255;138324;-77
2023/01/26 08:24:07;;;;;;;47.50;26.10;;;;;;;-0.23;86.57;100704.92;103436;1257;96445;-80
2023/01/26 08:26:35;;;;;;;51.20;26.60;;;;;;;-0.20;86.44;100703.78;103293;1253;138132;-77
2023/01/26 08:29:02;;;;;;;49.10;24.70;;;;;;;-0.18;86.11;100702.46;103379;1253;108271;-77
2023/01/26 08:31:29;;;;;;;44.80;23.30;;;;;;;-0.14;85.83;100699.98;103408;1253;97001;-75
2023/01/26 08:33:57;;;;;;;40.20;21.60;;;;;;;-0.09;85.48;100702.46;103304;1252;138612;-76
2023/01/26 08:36:24;;;;;;;39.60;21.40;;;;;;;-0.05;85.22;100701.85;103368;1253;96459;-74
2023/01/26 08:38:54;;;;;;;38.90;21.50;;;;;;;0.02;85.24;100692.76;103013;1253;138232;-74
2023/01/26 08:41:21;;;;;;;36.60;21.10;;;;;;;0.08;84.90;100697.82;103221;1257;107810;-80
2023/01/26 08:43:48;;;;;;;39.20;22.10;;;;;;;0.13;84.63;100697.71;103357;1253;138198;-81
2023/01/26 08:46:16;;;;;;;32.70;20.50;;;;;;;0.17;84.15;100703.26;103518;1257;107204;-81
2023/01/26 08:48:43;;;;;;;37.10;21.20;;;;;;;0.19;83.77;100705.88;103443;1257;96444;-76
2023/01/26 08:51:10;;;;;;;32.70;19.20;;;;;;;0.18;83.41;100703.30;102519;1253;1003321;-75
2023/01/26 08:53:38;;;;;;;34.60;19.40;;;;;;;0.15;83.19;100706.13;103296;1253;107625;-78
2023/01/26 08:56:08;;;;;;;33.80;20.00;;;;;;;0.13;83.13;100707.63;102520;1257;1003440;-79
2023/01/26 08:58:35;;;;;;;32.80;19.90;;;;;;;0.13;83.29;100709.34;103361;1256;108602;-78
2023/01/26 09:01:05;;;;;;;32.20;19.10;;;;;;;0.14;83.32;100714.31;103272;1253;96867;-75
2023/01/26 09:03:33;;;;;;;32.90;19.20;;;;;;;0.16;83.18;100714.00;103096;1253;138034;-77
2023/01/26 09:06:03;;;;;;;33.80;18.70;;;;;;;0.17;82.95;100714.88;103209;1253;107211;-78
2023/01/26 09:08:30;;;;;;;32.20;18.90;;;;;;;0.18;82.29;100726.02;103621;1253;139256;-77
2023/01/26 09:10:58;;;;;;;28.90;17.40;;;;;;;0.17;82.34;100721.56;103501;1253;109014;-78
2023/01/26 09:13:25;;;;;;;32.60;18.10;;;;;;;0.21;82.34;100726.09;103479;1257;96460;-79
2023/01/26 09:15:52;;;;;;;31.40;18.20;;;;;;;0.24;82.33;100726.47;103132;1253;137557;-78
2023/01/26 09:18:20;;;;;;;30.40;18.10;;;;;;;0.27;81.89;100731.82;103291;1253;107885;-80
2023/01/26 09:20:48;;;;;;;29.50;18.20;;;;;;;0.27;81.60;100728.91;104186;1252;138253;-78
2023/01/26 09:23:16;;;;;;;28.80;18.10;;;;;;;0.27;81.64;100727.04;103742;1253;107959;-80
2023/01/26 09:25:44;;;;;;;31.60;18.40;;;;;;;0.23;81.52;100727.15;103508;1253;98054;-79
2023/01/26 09:28:11;;;;;;;31.60;17.50;;;;;;;0.23;81.44;100724.92;103502;1256;109965;-78
2023/01/26 09:30:38;;;;;;;31.20;18.30;;;;;;;0.23;81.53;100719.80;103277;1256;109377;-70
2023/01/26 09:33:06;;;;;;;30.70;18.60;;;;;;;0.27;81.61;100721.05;103269;1253;139350;-81
2023/01/26 09:35:34;;;;;;;30.90;18.40;;;;;;;0.27;80.94;100720.88;103259;1254;107677;-79
2023/01/26 09:38:01;;;;;;;32.70;19.00;;;;;;;0.27;80.87;100714.55;103104;1253;138500;-83
2023/01/26 09:40:43;;;;;;;31.90;18.40;;;;;;;0.29;80.77;100716.80;104135;1253;109896;-81
2023/01/26 09:43:22;;;;;;;30.20;17.90;;;;;;;0.28;80.77;100715.59;104518;1253;106900;-81
2023/01/26 09:46:00;;;;;;;30.90;18.40;;;;;;;0.25;80.46;100709.40;103647;1253;138449;-82
2023/01/26 09:48:36;;;;;;;30.00;17.20;;;;;;;0.24;80.42;100708.00;103505;1253;109047;-81
2023/01/26 09:51:10;;;;;;;31.00;19.20;;;;;;;0.23;80.68;100709.88;103366;1253;138930;-83
2023/01/26 09:53:45;;;;;;;32.80;18.20;;;;;;;0.22;80.16;100708.66;103188;1257;110392;-84
2023/01/26 09:56:18;;;;;;;30.60;19.40;;;;;;;0.23;80.66;100707.30;103769;1253;138398;-83
2023/01/26 09:58:49;;;;;;;34.10;20.00;;;;;;;0.24;80.82;100702.38;103319;1256;98265;-81
2023/01/26 10:01:24;;;;;;;28.90;17.70;;;;;;;0.27;80.60;100700.70;103137;1252;1002952;-82
2023/01/26 10:04:00;;;;;;;28.70;18.20;;;;;;;0.25;80.24;100700.67;103891;1253;140452;-80
2023/01/26 10:06:30;;;;;;;32.60;18.10;;;;;;;0.24;80.43;100696.72;103311;1253;110989;-76
2023/01/26 10:09:13;;;;;;;31.80;19.80;;;;;;;0.27;80.44;100692.98;103616;1256;139051;-77
2023/01/26 10:11:44;;;;;;;30.40;18.20;;;;;;;0.27;80.31;100682.41;103277;1253;96437;-79
2023/01/26 10:14:15;;;;;;;31.50;18.70;;;;;;;0.30;80.27;100678.52;103554;1257;140166;-74
2023/01/26 10:16:46;;;;;;;32.70;19.30;;;;;;;0.30;80.05;100678.86;103378;1253;96443;-80
2023/01/26 10:19:20;;;;;;;31.70;18.70;;;;;;;0.29;80.09;100684.15;103637;1253;108655;-77
2023/01/26 10:21:51;;;;;;;32.30;18.50;;;;;;;0.27;80.11;100682.41;103698;1253;138263;-75
2023/01/26 10:24:22;;;;;;;27.10;17.30;;;;;;;0.27;79.87;100682.06;103459;1257;96449;-77
2023/01/26 10:26:51;;;;;;;27.30;16.80;;;;;;;0.25;79.73;100672.45;103115;1253;138240;-77
2023/01/26 10:29:19;;;;;;;27.60;17.50;;;;;;;0.24;79.81;100671.59;103771;1253;98102;-76
2023/01/26 10:31:47;;;;;;;25.80;16.60;;;;;;;0.22;79.74;100665.73;103310;1253;110544;-76
2023/01/26 10:34:22;;;;;;;28.40;17.30;;;;;;;0.21;79.78;100662.31;103439;1253;108609;-78
2023/01/26 10:36:49;;;;;;;27.90;17.10;;;;;;;0.20;80.03;100654.94;103452;1253;96430;-76
2023/01/26 10:39:18;;;;;;;29.30;17.50;;;;;;;0.23;79.97;100655.14;103738;1253;138281;-74
2023/01/26 10:41:58;;;;;;;28.40;17.40;;;;;;;0.27;80.03;100655.38;103349;1256;96464;-76
2023/01/26 10:44:33;;;;;;;30.70;18.20;;;;;;;0.28;79.84;100654.71;103345;1254;138206;-77
2023/01/26 10:47:20;;;;;;;28.80;17.40;;;;;;;0.29;79.95;100652.84;103596;1253;107410;-77
2023/01/26 10:49:48;;;;;;;28.20;17.20;;;;;;;0.31;79.99;100653.55;103566;1253;96460;-77
2023/01/26 10:52:20;;;;;;;27.70;17.60;;;;;;;0.34;79.80;100642.13;103431;1253;107704;-77
2023/01/26 10:54:49;;;;;;;29.00;17.50;;;;;;;0.33;79.50;100641.44;103191;1253;96416;-78
2023/01/26 10:57:26;;;;;;;28.80;17.20;;;;;;;0.32;79.25;100641.42;103112;1253;1002481;-77
2023/01/26 10:59:57;;;;;;;28.80;18.50;;;;;;;0.32;79.10;100636.27;103484;1253;108316;-78
2023/01/26 11:02:27;;;;;;;29.80;17.30;;;;;;;0.32;79.17;100627.40;103420;1253;138666;-79
2023/01/26 11:05:15;;;;;;;26.00;17.30;;;;;;;0.34;79.28;100622.11;103820;1257;106552;-78
2023/01/26 11:07:43;;;;;;;27.10;16.10;;;;;;;0.34;78.99;100620.75;103521;1254;96486;-77
2023/01/26 11:10:31;;;;;;;28.90;17.10;;;;;;;0.33;79.21;100613.89;103358;1253;137860;-80
2023/01/26 11:13:19;;;;;;;28.40;17.60;;;;;;;0.37;79.29;100618.09;102406;1255;1003778;-78
2023/01/26 11:15:49;;;;;;;28.20;17.30;;;;;;;0.41;79.48;100607.71;103226;1256;139118;-75
2023/01/26 11:18:26;;;;;;;24.00;16.00;;;;;;;0.47;79.35;100605.05;102566;1256;1003563;-75
2023/01/26 11:21:00;;;;;;;25.60;17.60;;;;;;;0.50;79.04;100605.77;103264;1257;138472;-76
2023/01/26 11:23:39;;;;;;;24.80;16.20;;;;;;;0.51;78.48;100605.96;103274;1253;109478;-81
2023/01/26 11:26:42;;;;;;;24.90;15.70;;;;;;;0.47;77.98;100602.98;103765;1252;138297;-82
2023/01/26 11:29:31;;;;;;;24.20;16.40;;;;;;;0.42;78.15;100603.61;102969;1263;96369;-80
2023/01/26 11:32:04;;;;;;;28.10;17.30;;;;;;;0.39;78.14;100596.56;102623;1261;138288;-75
2023/01/26 11:34:41;;;;;;;25.40;16.90;;;;;;;0.38;78.40;100593.29;102774;1262;96419;-79
2023/01/26 11:37:35;;;;;;;26.40;17.20;;;;;;;0.38;78.46;100593.30;101986;1263;1003060;-80
2023/01/26 11:40:14;;;;;;;28.60;17.70;;;;;;;0.36;78.07;100592.42;103229;1263;138943;-80
2023/01/26 11:42:51;;;;;;;26.00;16.50;;;;;;;0.34;77.90;100585.35;101456;1261;1002978;-77
2023/01/26 11:45:25;;;;;;;25.90;17.10;;;;;;;0.33;77.88;100589.95;102553;1262;138478;-79
2023/01/26 11:48:08;;;;;;;30.90;17.40;;;;;;;0.31;78.18;100587.54;103695;1262;94648;-79
2023/01/26 11:50:41;;;;;;;29.40;17.20;;;;;;;0.29;78.15;100582.21;103995;1261;138808;-78
2023/01/26 11:53:27;;;;;;;28.30;18.20;;;;;;;0.29;78.08;100577.07;103157;1260;107025;-78
2023/01/26 11:56:05;;;;;;;26.10;16.90;;;;;;;0.29;78.17;100575.38;102791;1264;140268;-79
2023/01/26 11:58:37;;;;;;;29.90;17.30;;;;;;;0.31;78.13;100578.30;103197;1262;108063;-79